createdAt,value
2022-08-20T00:00:05.855Z,94.10
2022-08-20T00:00:15.280Z,94.10
2022-08-20T00:00:24.681Z,94.10
2022-08-20T00:00:34.099Z,94.10
2022-08-20T00:00:43.509Z,94.10
2022-08-20T00:00:52.909Z,94.10
2022-08-20T00:01:02.631Z,94.10
2022-08-20T00:01:11.805Z,94.10
2022-08-20T00:01:21.204Z,94.10
2022-08-20T00:01:30.661Z,94.10
2022-08-20T00:01:40.095Z,94.10
2022-08-20T00:01:49.512Z,94.10
2022-08-20T00:01:58.913Z,94.10
2022-08-20T00:02:08.322Z,94.10
2022-08-20T00:02:17.715Z,94.00
2022-08-20T00:02:27.088Z,94.00
2022-08-20T00:02:45.956Z,94.00
2022-08-20T00:02:55.353Z,94.00
2022-08-20T00:03:04.731Z,94.00
2022-08-20T00:03:14.153Z,94.00
2022-08-20T00:03:23.554Z,94.00
2022-08-20T00:03:32.955Z,94.00
2022-08-20T00:03:44.710Z,94.00
2022-08-20T00:03:53.520Z,94.00
2022-08-20T00:04:01.665Z,94.00
2022-08-20T00:04:10.643Z,93.90
2022-08-20T00:04:20.056Z,93.90
2022-08-20T00:04:29.454Z,93.90
2022-08-20T00:04:39.766Z,93.90
2022-08-20T00:04:48.268Z,93.90
2022-08-20T00:04:57.692Z,93.90
2022-08-20T00:05:07.101Z,93.90
2022-08-20T00:05:25.999Z,93.90
2022-08-20T00:05:35.390Z,93.90
2022-08-20T00:05:44.813Z,93.90
2022-08-20T00:05:56.780Z,93.90
2022-08-20T00:06:03.693Z,93.90
2022-08-20T00:06:13.091Z,93.90
2022-08-20T00:06:22.519Z,93.90
2022-08-20T00:06:31.916Z,93.90
2022-08-20T00:06:41.337Z,93.90
2022-08-20T00:06:50.750Z,93.90
2022-08-20T00:07:00.187Z,93.90
2022-08-20T00:07:09.611Z,93.90
2022-08-20T00:07:19.031Z,93.80
2022-08-20T00:07:28.649Z,93.80
2022-08-20T00:07:38.047Z,93.90
2022-08-20T00:07:47.482Z,93.90
2022-08-20T00:07:57.036Z,93.90
2022-08-20T00:08:15.849Z,93.90
2022-08-20T00:08:25.322Z,93.90
2022-08-20T00:08:34.706Z,93.90
2022-08-20T00:08:44.122Z,93.90
2022-08-20T00:08:53.521Z,93.90
2022-08-20T00:09:03.069Z,93.80
2022-08-20T00:09:12.488Z,93.80
2022-08-20T00:09:21.889Z,93.70
2022-08-20T00:09:31.322Z,93.70
2022-08-20T00:09:40.717Z,93.60
2022-08-20T00:09:50.131Z,93.60
2022-08-20T00:09:59.614Z,93.60
2022-08-20T00:10:09.013Z,93.60
2022-08-20T00:10:18.433Z,93.50
2022-08-20T00:10:27.922Z,93.60
2022-08-20T00:10:37.343Z,93.60
2022-08-20T00:10:47.664Z,93.60
2022-08-20T00:11:05.579Z,93.60
2022-08-20T00:11:15.027Z,93.60
2022-08-20T00:11:25.103Z,93.60
2022-08-20T00:11:33.864Z,93.60
2022-08-20T00:11:43.258Z,93.70
2022-08-20T00:11:52.670Z,93.60
2022-08-20T00:12:02.094Z,93.70
2022-08-20T00:12:11.564Z,93.60
2022-08-20T00:12:20.976Z,93.60
2022-08-20T00:12:30.379Z,93.60
2022-08-20T00:12:39.771Z,93.60
2022-08-20T00:12:49.195Z,93.60
2022-08-20T00:12:58.617Z,93.70
2022-08-20T00:13:08.043Z,93.70
2022-08-20T00:13:18.132Z,93.70
2022-08-20T00:13:26.886Z,93.70
2022-08-20T00:13:45.760Z,93.80
2022-08-20T00:13:55.191Z,93.80
2022-08-20T00:14:04.605Z,93.80
2022-08-20T00:14:14.023Z,93.80
2022-08-20T00:14:23.428Z,93.80
2022-08-20T00:14:33.925Z,93.80
2022-08-20T00:14:42.262Z,93.80
2022-08-20T00:14:51.679Z,93.80
2022-08-20T00:15:01.156Z,93.80
2022-08-20T00:15:10.568Z,93.80
2022-08-20T00:15:19.984Z,93.80
2022-08-20T00:15:29.389Z,93.70
2022-08-20T00:15:38.811Z,93.70
2022-08-20T00:15:48.190Z,93.80
2022-08-20T00:15:57.613Z,93.70
2022-08-20T00:16:07.024Z,93.70
2022-08-20T00:16:25.896Z,93.70
2022-08-20T00:16:35.294Z,93.60
2022-08-20T00:16:44.730Z,93.70
2022-08-20T00:16:54.130Z,93.60
2022-08-20T00:17:03.572Z,93.60
2022-08-20T00:17:12.983Z,93.60
2022-08-20T00:17:22.383Z,93.60
2022-08-20T00:17:31.802Z,93.60
2022-08-20T00:17:41.215Z,93.60
2022-08-20T00:17:50.756Z,93.60
2022-08-20T00:18:00.077Z,93.60
2022-08-20T00:18:09.456Z,93.60
2022-08-20T00:18:18.862Z,93.60
2022-08-20T00:18:28.275Z,93.60
2022-08-20T00:18:37.666Z,93.60
2022-08-20T00:18:47.134Z,93.60
2022-08-20T00:19:05.940Z,93.50
2022-08-20T00:19:15.406Z,93.50
2022-08-20T00:19:24.816Z,93.50
2022-08-20T00:19:34.212Z,93.50
2022-08-20T00:19:43.625Z,93.50
2022-08-20T00:19:53.027Z,93.50
2022-08-20T00:20:02.559Z,93.50
2022-08-20T00:20:11.985Z,93.50
2022-08-20T00:20:21.439Z,93.50
2022-08-20T00:20:30.909Z,93.50
2022-08-20T00:20:40.339Z,93.40
2022-08-20T00:20:49.732Z,93.50
2022-08-20T00:20:59.136Z,93.50
2022-08-20T00:21:08.550Z,93.50
2022-08-20T00:21:18.826Z,93.50
2022-08-20T00:21:27.370Z,93.50
2022-08-20T00:21:36.771Z,93.40
2022-08-20T00:21:58.007Z,93.40
2022-08-20T00:22:04.961Z,93.40
2022-08-20T00:22:14.425Z,93.40
2022-08-20T00:22:23.846Z,93.40
2022-08-20T00:22:33.248Z,93.40
2022-08-20T00:22:42.649Z,93.40
2022-08-20T00:22:52.067Z,93.40
2022-08-20T00:23:01.543Z,93.40
2022-08-20T00:23:10.929Z,93.40
2022-08-20T00:23:20.329Z,93.40
2022-08-20T00:23:29.725Z,93.40
2022-08-20T00:23:39.139Z,93.30
2022-08-20T00:23:48.547Z,93.30
2022-08-20T00:23:57.955Z,93.30
2022-08-20T00:24:07.371Z,93.30
2022-08-20T00:24:16.861Z,93.30
2022-08-20T00:24:35.701Z,93.30
2022-08-20T00:24:45.153Z,93.30
2022-08-20T00:24:54.574Z,93.30
2022-08-20T00:25:04.012Z,93.20
2022-08-20T00:25:13.437Z,93.20
2022-08-20T00:25:22.843Z,93.20
2022-08-20T00:25:32.282Z,93.20
2022-08-20T00:25:41.700Z,93.20
2022-08-20T00:25:51.109Z,93.20
2022-08-20T00:26:00.539Z,93.20
2022-08-20T00:26:09.949Z,93.20
2022-08-20T00:26:19.357Z,93.20
2022-08-20T00:26:28.771Z,93.20
2022-08-20T00:26:38.172Z,93.20
2022-08-20T00:26:52.520Z,93.20
2022-08-20T00:26:57.005Z,93.20
2022-08-20T00:27:15.903Z,93.20
2022-08-20T00:27:25.311Z,93.20
2022-08-20T00:27:34.717Z,93.20
2022-08-20T00:27:44.111Z,93.20
2022-08-20T00:27:53.532Z,93.10
2022-08-20T00:28:03.000Z,93.10
2022-08-20T00:28:12.384Z,93.10
2022-08-20T00:28:21.804Z,93.10
2022-08-20T00:28:31.213Z,93.10
2022-08-20T00:28:40.641Z,93.10
2022-08-20T00:28:50.059Z,93.10
2022-08-20T00:28:59.476Z,93.10
2022-08-20T00:29:08.901Z,93.10
2022-08-20T00:29:20.114Z,93.10
2022-08-20T00:29:27.750Z,93.10
2022-08-20T00:29:37.133Z,93.10
2022-08-20T00:29:55.938Z,93.10
2022-08-20T00:30:05.459Z,93.10
2022-08-20T00:30:14.856Z,93.00
2022-08-20T00:30:24.267Z,93.00
2022-08-20T00:30:33.688Z,93.00
2022-08-20T00:30:43.114Z,93.00
2022-08-20T00:30:52.530Z,93.00
2022-08-20T00:31:01.958Z,93.00
2022-08-20T00:31:11.461Z,93.00
2022-08-20T00:31:20.857Z,93.00
2022-08-20T00:31:30.297Z,93.00
2022-08-20T00:31:39.694Z,93.00
2022-08-20T00:31:49.091Z,93.00
2022-08-20T00:31:58.511Z,93.00
2022-08-20T00:32:07.914Z,92.90
2022-08-20T00:32:17.317Z,92.90
2022-08-20T00:32:26.735Z,92.90
2022-08-20T00:32:45.586Z,92.80
2022-08-20T00:32:55.013Z,92.80
2022-08-20T00:33:04.419Z,92.80
2022-08-20T00:33:13.845Z,92.80
2022-08-20T00:33:23.272Z,92.80
2022-08-20T00:33:32.685Z,92.70
2022-08-20T00:33:42.113Z,92.70
2022-08-20T00:33:51.561Z,92.80
2022-08-20T00:34:01.039Z,92.80
2022-08-20T00:34:10.470Z,92.80
2022-08-20T00:34:19.890Z,92.80
2022-08-20T00:34:29.316Z,92.80
2022-08-20T00:34:38.734Z,92.90
2022-08-20T00:34:48.161Z,92.90
2022-08-20T00:34:57.587Z,93.00
2022-08-20T00:35:07.033Z,93.00
2022-08-20T00:35:25.878Z,93.20
2022-08-20T00:35:35.287Z,93.30
2022-08-20T00:35:44.733Z,93.30
2022-08-20T00:35:54.173Z,93.50
2022-08-20T00:36:03.594Z,93.60
2022-08-20T00:36:12.984Z,93.70
2022-08-20T00:36:22.402Z,93.80
2022-08-20T00:36:32.947Z,94.00
2022-08-20T00:36:41.309Z,94.10
2022-08-20T00:36:50.735Z,94.20
2022-08-20T00:37:00.151Z,94.30
2022-08-20T00:37:09.572Z,94.50
2022-08-20T00:37:18.992Z,94.60
2022-08-20T00:37:28.401Z,94.70
2022-08-20T00:37:37.845Z,94.90
2022-08-20T00:37:47.252Z,95.00
2022-08-20T00:38:06.107Z,95.50
2022-08-20T00:38:15.535Z,95.60
2022-08-20T00:38:24.936Z,95.70
2022-08-20T00:38:34.360Z,95.90
2022-08-20T00:38:43.784Z,96.00
2022-08-20T00:38:53.238Z,96.20
2022-08-20T00:39:02.653Z,96.30
2022-08-20T00:39:12.073Z,96.50
2022-08-20T00:39:21.514Z,96.70
2022-08-20T00:39:30.989Z,96.80
2022-08-20T00:39:40.571Z,97.00
2022-08-20T00:39:49.876Z,97.10
2022-08-20T00:39:59.442Z,97.40
2022-08-20T00:40:22.177Z,97.70
2022-08-20T00:40:22.408Z,97.50
2022-08-20T00:40:27.581Z,97.90
2022-08-20T00:40:37.008Z,98.20
2022-08-20T00:40:55.867Z,98.40
2022-08-20T00:41:05.283Z,98.50
2022-08-20T00:41:14.717Z,98.70
2022-08-20T00:41:24.142Z,98.80
2022-08-20T00:41:33.624Z,99.00
2022-08-20T00:41:43.013Z,99.20
2022-08-20T00:41:52.429Z,99.40
2022-08-20T00:42:01.859Z,99.60
2022-08-20T00:42:11.279Z,99.60
2022-08-20T00:42:20.732Z,99.70
2022-08-20T00:42:30.262Z,99.80
2022-08-20T00:42:39.752Z,99.90
2022-08-20T00:42:49.184Z,99.90
2022-08-20T00:42:58.621Z,99.90
2022-08-20T00:43:08.026Z,99.90
2022-08-20T00:43:17.460Z,99.90
2022-08-20T00:43:26.862Z,99.90
2022-08-20T00:43:45.694Z,99.90
2022-08-20T00:43:55.111Z,99.90
2022-08-20T00:44:04.536Z,99.90
2022-08-20T00:44:14.026Z,99.90
2022-08-20T00:44:23.429Z,99.90
2022-08-20T00:44:32.865Z,99.90
2022-08-20T00:44:42.281Z,99.90
2022-08-20T00:44:51.703Z,99.90
2022-08-20T00:45:01.128Z,99.90
2022-08-20T00:45:10.567Z,99.90
2022-08-20T00:45:19.967Z,99.90
2022-08-20T00:45:29.386Z,99.90
2022-08-20T00:45:38.823Z,99.90
2022-08-20T00:45:48.220Z,99.90
2022-08-20T00:45:57.674Z,99.90
2022-08-20T00:46:07.100Z,99.90
2022-08-20T00:46:28.198Z,99.90
2022-08-20T00:46:35.369Z,99.90
2022-08-20T00:46:44.784Z,99.90
2022-08-20T00:46:54.226Z,99.90
2022-08-20T00:47:03.647Z,99.90
2022-08-20T00:47:13.067Z,99.90
2022-08-20T00:47:22.477Z,99.90
2022-08-20T00:47:31.892Z,99.90
2022-08-20T00:47:41.313Z,99.90
2022-08-20T00:47:51.193Z,99.90
2022-08-20T00:48:00.178Z,99.90
2022-08-20T00:48:09.645Z,99.90
2022-08-20T00:48:19.071Z,99.90
2022-08-20T00:48:28.477Z,99.90
2022-08-20T00:48:37.895Z,99.90
2022-08-20T00:48:47.309Z,99.90
2022-08-20T00:49:06.138Z,99.90
2022-08-20T00:49:15.546Z,99.90
2022-08-20T00:49:24.984Z,99.90
2022-08-20T00:49:34.357Z,99.90
2022-08-20T00:49:43.751Z,99.90
2022-08-20T00:49:53.175Z,99.90
2022-08-20T00:50:02.597Z,99.90
2022-08-20T00:50:12.071Z,99.90
2022-08-20T00:50:21.500Z,99.90
2022-08-20T00:50:30.962Z,99.90
2022-08-20T00:50:40.367Z,99.90
2022-08-20T00:50:49.800Z,99.90
2022-08-20T00:50:59.211Z,99.90
2022-08-20T00:51:08.600Z,99.90
2022-08-20T00:51:18.022Z,99.90
2022-08-20T00:51:27.445Z,99.90
2022-08-20T00:51:36.840Z,99.90
2022-08-20T00:51:55.693Z,99.90
2022-08-20T00:52:05.133Z,99.90
2022-08-20T00:52:14.527Z,99.90
2022-08-20T00:52:23.944Z,99.90
2022-08-20T00:52:33.340Z,99.90
2022-08-20T00:52:42.746Z,99.90
2022-08-20T00:52:52.172Z,99.90
2022-08-20T00:53:01.592Z,99.90
2022-08-20T00:53:11.014Z,99.90
2022-08-20T00:53:20.431Z,99.90
2022-08-20T00:53:29.837Z,99.90
2022-08-20T00:53:39.259Z,99.90
2022-08-20T00:53:48.695Z,99.90
2022-08-20T00:53:58.107Z,99.90
2022-08-20T00:54:07.536Z,99.90
2022-08-20T00:54:16.962Z,99.90
2022-08-20T00:54:35.779Z,99.90
2022-08-20T00:54:45.187Z,99.90
2022-08-20T00:54:54.591Z,99.90
2022-08-20T00:55:03.997Z,99.90
2022-08-20T00:55:13.430Z,99.90
2022-08-20T00:55:22.888Z,99.90
2022-08-20T00:55:32.335Z,99.90
2022-08-20T00:55:41.742Z,99.90
2022-08-20T00:55:51.245Z,99.90
2022-08-20T00:56:00.709Z,99.90
2022-08-20T00:56:10.135Z,99.90
2022-08-20T00:56:19.598Z,99.90
2022-08-20T00:56:28.998Z,99.90
2022-08-20T00:56:38.429Z,99.90
2022-08-20T00:56:47.845Z,99.90
2022-08-20T00:56:57.270Z,99.90
2022-08-20T00:57:16.121Z,99.90
2022-08-20T00:57:25.534Z,99.90
2022-08-20T00:57:51.226Z,99.90
2022-08-20T00:57:58.990Z,99.90
2022-08-20T00:58:00.769Z,99.90
2022-08-20T00:58:03.805Z,99.90
2022-08-20T00:58:12.661Z,99.90
2022-08-20T00:58:22.072Z,99.90
2022-08-20T00:58:31.538Z,99.90
2022-08-20T00:58:40.961Z,99.90
2022-08-20T00:58:50.366Z,99.90
2022-08-20T00:58:59.774Z,99.90
2022-08-20T00:59:09.243Z,99.90
2022-08-20T00:59:18.670Z,99.90
2022-08-20T00:59:28.103Z,99.90
2022-08-20T00:59:37.553Z,99.90
2022-08-20T00:59:46.981Z,99.90
2022-08-20T01:00:05.834Z,99.90
2022-08-20T01:00:15.663Z,99.90
2022-08-20T01:00:25.058Z,99.90
2022-08-20T01:00:34.505Z,99.90
2022-08-20T01:00:44.066Z,99.90
2022-08-20T01:00:53.494Z,99.90
2022-08-20T01:01:02.906Z,99.90
2022-08-20T01:01:12.321Z,99.90
2022-08-20T01:01:21.760Z,99.90
2022-08-20T01:01:31.196Z,99.90
2022-08-20T01:01:41.971Z,99.90
2022-08-20T01:01:55.098Z,99.90
2022-08-20T01:01:59.458Z,99.90
2022-08-20T01:02:08.884Z,99.90
2022-08-20T01:02:18.327Z,99.90
2022-08-20T01:02:27.657Z,99.90
2022-08-20T01:02:37.080Z,99.90
2022-08-20T01:02:55.945Z,99.90
2022-08-20T01:03:05.361Z,99.90
2022-08-20T01:03:14.766Z,99.90
2022-08-20T01:03:24.167Z,99.90
2022-08-20T01:03:33.585Z,99.90
2022-08-20T01:03:42.971Z,99.90
2022-08-20T01:03:52.377Z,99.90
2022-08-20T01:04:01.766Z,99.90
2022-08-20T01:04:11.175Z,99.90
2022-08-20T01:04:20.571Z,99.90
2022-08-20T01:04:30.029Z,99.90
2022-08-20T01:04:39.441Z,99.90
2022-08-20T01:04:48.848Z,99.90
2022-08-20T01:04:58.262Z,99.90
2022-08-20T01:05:07.677Z,99.90
2022-08-20T01:05:17.140Z,99.90
2022-08-20T01:05:35.975Z,99.90
2022-08-20T01:05:45.399Z,99.90
2022-08-20T01:05:54.807Z,99.90
2022-08-20T01:06:04.222Z,99.90
2022-08-20T01:06:13.676Z,99.90
2022-08-20T01:06:23.111Z,99.90
2022-08-20T01:06:32.550Z,99.90
2022-08-20T01:06:41.964Z,99.90
2022-08-20T01:06:51.450Z,99.90
2022-08-20T01:07:00.866Z,99.90
2022-08-20T01:07:10.291Z,99.90
2022-08-20T01:07:19.708Z,99.90
2022-08-20T01:07:29.108Z,99.90
2022-08-20T01:07:38.557Z,99.90
2022-08-20T01:07:47.969Z,99.90
2022-08-20T01:07:57.700Z,99.90
2022-08-20T01:08:06.863Z,99.90
2022-08-20T01:08:25.741Z,99.90
2022-08-20T01:08:35.147Z,99.90
2022-08-20T01:08:44.600Z,99.90
2022-08-20T01:08:54.012Z,99.90
2022-08-20T01:09:03.419Z,99.90
2022-08-20T01:09:12.839Z,99.90
2022-08-20T01:09:33.382Z,99.90
2022-08-20T01:09:50.512Z,99.90
2022-08-20T01:09:58.303Z,99.90
2022-08-20T01:09:59.063Z,99.90
2022-08-20T01:09:59.934Z,99.90
2022-08-20T01:10:09.361Z,99.90
2022-08-20T01:10:51.275Z,99.90
2022-08-20T01:11:00.719Z,99.90
2022-08-20T01:11:10.153Z,99.90
2022-08-20T01:11:19.585Z,99.90
2022-08-20T01:11:29.039Z,99.90
2022-08-20T01:11:38.453Z,99.90
2022-08-20T01:11:47.879Z,99.90
2022-08-20T01:11:57.305Z,99.90
2022-08-20T01:12:06.713Z,99.90
2022-08-20T01:12:16.130Z,99.90
2022-08-20T01:12:25.550Z,99.90
2022-08-20T01:12:35.070Z,99.90
2022-08-20T01:12:44.491Z,99.90
2022-08-20T01:12:54.923Z,99.90
2022-08-20T01:13:03.337Z,99.90
2022-08-20T01:13:12.798Z,99.90
2022-08-20T01:13:22.218Z,99.90
2022-08-20T01:13:31.646Z,99.90
2022-08-20T01:13:41.061Z,99.90
2022-08-20T01:13:50.509Z,99.90
2022-08-20T01:13:59.921Z,99.90
2022-08-20T01:14:09.329Z,99.90
2022-08-20T01:14:18.773Z,99.90
2022-08-20T01:14:28.206Z,99.90
2022-08-20T01:14:37.619Z,99.90
2022-08-20T01:14:47.038Z,99.90
2022-08-20T01:14:56.455Z,99.90
2022-08-20T01:15:05.867Z,99.90
2022-08-20T01:15:15.335Z,99.90
2022-08-20T01:15:26.857Z,99.90
2022-08-20T01:15:34.205Z,99.90
2022-08-20T01:15:43.683Z,99.90
2022-08-20T01:15:53.005Z,99.90
2022-08-20T01:16:02.445Z,99.90
2022-08-20T01:16:11.841Z,99.90
2022-08-20T01:16:21.243Z,99.90
2022-08-20T01:16:30.732Z,99.90
2022-08-20T01:16:40.667Z,99.90
2022-08-20T01:16:49.609Z,99.90
2022-08-20T01:16:59.017Z,99.90
2022-08-20T01:17:08.425Z,99.90
2022-08-20T01:17:17.967Z,99.90
2022-08-20T01:17:27.268Z,99.90
2022-08-20T01:17:46.129Z,99.90
2022-08-20T01:17:55.747Z,99.90
2022-08-20T01:18:05.005Z,99.90
2022-08-20T01:18:14.424Z,99.90
2022-08-20T01:18:23.843Z,99.90
2022-08-20T01:18:33.266Z,99.90
2022-08-20T01:18:42.690Z,99.90
2022-08-20T01:18:52.118Z,99.90
2022-08-20T01:19:01.613Z,99.90
2022-08-20T01:19:29.424Z,99.90
2022-08-20T01:19:29.868Z,99.90
2022-08-20T01:19:30.408Z,99.90
2022-08-20T01:19:39.635Z,99.90
2022-08-20T01:19:49.071Z,99.90
2022-08-20T01:19:58.501Z,99.90
2022-08-20T01:20:07.933Z,99.90
2022-08-20T01:20:17.401Z,99.90
2022-08-20T01:20:26.844Z,99.90
2022-08-20T01:20:45.713Z,99.90
2022-08-20T01:20:55.129Z,99.90
2022-08-20T01:21:04.524Z,99.90
2022-08-20T01:21:13.925Z,99.90
2022-08-20T01:21:23.331Z,99.90
2022-08-20T01:21:32.815Z,99.90
2022-08-20T01:21:43.001Z,99.90
2022-08-20T01:21:51.980Z,99.90
2022-08-20T01:22:01.071Z,99.90
2022-08-20T01:22:10.501Z,99.90
2022-08-20T01:22:19.917Z,99.90
2022-08-20T01:22:29.337Z,99.90
2022-08-20T01:22:38.759Z,99.90
2022-08-20T01:22:48.184Z,99.90
2022-08-20T01:22:57.636Z,99.90
2022-08-20T01:23:07.056Z,99.90
2022-08-20T01:23:25.909Z,99.90
2022-08-20T01:23:35.322Z,99.90
2022-08-20T01:23:44.750Z,99.90
2022-08-20T01:23:54.171Z,99.90
2022-08-20T01:24:03.598Z,99.90
2022-08-20T01:24:13.014Z,99.90
2022-08-20T01:24:22.426Z,99.90
2022-08-20T01:24:32.036Z,99.90
2022-08-20T01:24:41.450Z,99.90
2022-08-20T01:24:50.867Z,99.90
2022-08-20T01:25:00.318Z,99.90
2022-08-20T01:25:09.715Z,99.90
2022-08-20T01:25:19.116Z,99.90
2022-08-20T01:25:28.561Z,99.90
2022-08-20T01:25:38.001Z,99.90
2022-08-20T01:25:47.437Z,99.90
2022-08-20T01:25:56.843Z,99.90
2022-08-20T01:26:15.672Z,99.90
2022-08-20T01:26:25.087Z,99.90
2022-08-20T01:26:34.514Z,99.90
2022-08-20T01:26:43.915Z,99.90
2022-08-20T01:26:53.337Z,99.90
2022-08-20T01:27:02.763Z,99.90
2022-08-20T01:27:12.189Z,99.90
2022-08-20T01:27:21.604Z,99.90
2022-08-20T01:27:31.045Z,99.90
2022-08-20T01:27:42.789Z,99.90
2022-08-20T01:27:55.125Z,99.90
2022-08-20T01:27:59.531Z,99.90
2022-08-20T01:28:08.732Z,99.90
2022-08-20T01:28:18.145Z,99.90
2022-08-20T01:28:27.573Z,99.90
2022-08-20T01:28:36.982Z,99.90
2022-08-20T01:28:55.801Z,99.90
2022-08-20T01:29:05.262Z,99.90
2022-08-20T01:29:14.643Z,99.90
2022-08-20T01:29:24.060Z,99.90
2022-08-20T01:29:33.490Z,99.90
2022-08-20T01:29:42.906Z,99.90
2022-08-20T01:29:52.350Z,99.90
2022-08-20T01:30:01.832Z,99.90
2022-08-20T01:30:11.222Z,99.90
2022-08-20T01:30:20.659Z,99.90
2022-08-20T01:30:30.127Z,99.90
2022-08-20T01:30:39.523Z,99.90
2022-08-20T01:30:48.931Z,99.90
2022-08-20T01:30:58.356Z,99.90
2022-08-20T01:31:07.765Z,99.90
2022-08-20T01:31:17.349Z,99.90
2022-08-20T01:31:36.050Z,99.90
2022-08-20T01:31:45.459Z,99.90
2022-08-20T01:31:54.859Z,99.90
2022-08-20T01:32:04.282Z,99.90
2022-08-20T01:32:13.680Z,99.90
2022-08-20T01:32:23.087Z,99.90
2022-08-20T01:32:32.483Z,99.90
2022-08-20T01:32:41.898Z,99.90
2022-08-20T01:32:51.373Z,99.90
2022-08-20T01:33:00.838Z,99.90
2022-08-20T01:33:10.258Z,99.90
2022-08-20T01:33:19.656Z,99.90
2022-08-20T01:33:29.061Z,99.90
2022-08-20T01:33:38.477Z,99.90
2022-08-20T01:33:47.871Z,99.90
2022-08-20T01:33:57.281Z,99.90
2022-08-20T01:34:16.088Z,99.90
2022-08-20T01:34:25.502Z,99.90
2022-08-20T01:34:34.927Z,99.90
2022-08-20T01:34:44.339Z,99.90
2022-08-20T01:34:53.743Z,99.90
2022-08-20T01:35:03.174Z,99.90
2022-08-20T01:35:12.587Z,99.90
2022-08-20T01:35:21.993Z,99.90
2022-08-20T01:35:31.449Z,99.90
2022-08-20T01:35:40.853Z,99.90
2022-08-20T01:35:50.275Z,99.90
2022-08-20T01:35:59.694Z,99.90
2022-08-20T01:36:09.091Z,99.90
2022-08-20T01:36:18.515Z,99.90
2022-08-20T01:36:27.942Z,99.90
2022-08-20T01:36:37.349Z,99.90
2022-08-20T01:36:46.938Z,99.90
2022-08-20T01:37:05.787Z,99.90
2022-08-20T01:37:15.175Z,99.90
2022-08-20T01:37:24.596Z,99.90
2022-08-20T01:37:33.996Z,99.90
2022-08-20T01:37:43.420Z,99.90
2022-08-20T01:37:52.836Z,99.90
2022-08-20T01:38:02.241Z,99.90
2022-08-20T01:38:11.638Z,99.90
2022-08-20T01:38:21.061Z,99.90
2022-08-20T01:38:30.508Z,99.90
2022-08-20T01:38:39.902Z,99.90
2022-08-20T01:38:54.159Z,99.90
2022-08-20T01:38:58.731Z,99.90
2022-08-20T01:39:08.138Z,99.90
2022-08-20T01:39:17.534Z,99.90
2022-08-20T01:39:26.929Z,99.90
2022-08-20T01:39:45.853Z,99.90
2022-08-20T01:39:55.178Z,99.90
2022-08-20T01:40:04.667Z,99.90
2022-08-20T01:40:14.136Z,99.90
2022-08-20T01:40:23.373Z,99.90
2022-08-20T01:40:32.829Z,99.90
2022-08-20T01:40:42.251Z,99.90
2022-08-20T01:40:51.652Z,99.90
2022-08-20T01:41:01.082Z,99.90
2022-08-20T01:41:10.473Z,99.90
2022-08-20T01:41:19.892Z,99.90
2022-08-20T01:41:29.297Z,99.90
2022-08-20T01:41:38.712Z,99.90
2022-08-20T01:41:48.110Z,99.90
2022-08-20T01:41:57.510Z,99.90
2022-08-20T01:42:06.917Z,99.90
2022-08-20T01:42:25.767Z,99.90
2022-08-20T01:42:35.194Z,99.90
2022-08-20T01:42:52.746Z,99.90
2022-08-20T01:42:59.259Z,99.90
2022-08-20T01:43:03.441Z,99.90
2022-08-20T01:43:12.897Z,99.90
2022-08-20T01:43:22.309Z,99.90
2022-08-20T01:43:32.274Z,99.90
2022-08-20T01:43:41.147Z,99.90
2022-08-20T01:43:50.548Z,99.90
2022-08-20T01:43:59.983Z,99.90
2022-08-20T01:44:16.707Z,99.90
2022-08-20T01:44:18.813Z,99.90
2022-08-20T01:44:28.237Z,99.90
2022-08-20T01:44:37.637Z,99.80
2022-08-20T01:44:47.137Z,99.60
2022-08-20T01:45:05.998Z,99.20
2022-08-20T01:45:15.412Z,99.20
2022-08-20T01:45:26.910Z,99.20
2022-08-20T01:45:34.296Z,99.10
2022-08-20T01:45:43.697Z,98.90
2022-08-20T01:45:53.097Z,98.60
2022-08-20T01:46:02.501Z,98.50
2022-08-20T01:46:11.900Z,98.40
2022-08-20T01:46:21.340Z,98.30
2022-08-20T01:46:30.744Z,98.30
2022-08-20T01:46:43.707Z,98.30
2022-08-20T01:46:49.584Z,98.20
2022-08-20T01:46:58.992Z,98.20
2022-08-20T01:47:08.395Z,98.20
2022-08-20T01:47:17.785Z,98.10
2022-08-20T01:47:27.201Z,98.10
2022-08-20T01:47:46.073Z,98.00
2022-08-20T01:47:55.676Z,97.90
2022-08-20T01:48:04.906Z,97.80
2022-08-20T01:48:14.301Z,97.70
2022-08-20T01:48:23.722Z,97.50
2022-08-20T01:48:33.146Z,97.40
2022-08-20T01:48:42.567Z,97.30
2022-08-20T01:48:51.967Z,97.20
2022-08-20T01:49:01.425Z,97.10
2022-08-20T01:49:12.394Z,97.10
2022-08-20T01:49:23.079Z,97.10
2022-08-20T01:49:29.677Z,96.90
2022-08-20T01:49:39.087Z,96.80
2022-08-20T01:49:48.495Z,96.80
2022-08-20T01:49:57.913Z,96.60
2022-08-20T01:50:07.325Z,96.60
2022-08-20T01:50:16.761Z,96.60
2022-08-20T01:50:35.667Z,96.50
2022-08-20T01:50:45.140Z,96.50
2022-08-20T01:50:54.562Z,96.50
2022-08-20T01:51:03.984Z,96.40
2022-08-20T01:51:13.405Z,96.40
2022-08-20T01:51:22.810Z,96.40
2022-08-20T01:51:32.255Z,96.30
2022-08-20T01:51:41.697Z,96.30
2022-08-20T01:51:51.152Z,96.30
2022-08-20T01:52:00.563Z,96.40
2022-08-20T01:52:09.984Z,96.40
2022-08-20T01:52:19.402Z,96.40
2022-08-20T01:52:28.831Z,96.50
2022-08-20T01:52:38.319Z,96.60
2022-08-20T01:52:47.799Z,96.60
2022-08-20T01:52:57.211Z,96.60
2022-08-20T01:53:16.043Z,96.70
2022-08-20T01:53:25.465Z,96.90
2022-08-20T01:53:34.888Z,97.00
2022-08-20T01:53:44.297Z,97.10
2022-08-20T01:53:53.721Z,97.30
2022-08-20T01:54:03.126Z,97.40
2022-08-20T01:54:12.520Z,97.60
2022-08-20T01:54:21.960Z,97.70
2022-08-20T01:54:31.405Z,97.80
2022-08-20T01:54:40.825Z,97.90
2022-08-20T01:54:50.247Z,98.10
2022-08-20T01:54:59.658Z,98.20
2022-08-20T01:55:09.079Z,98.30
2022-08-20T01:55:18.503Z,98.40
2022-08-20T01:55:27.936Z,98.60
2022-08-20T01:55:37.367Z,98.70
2022-08-20T01:55:46.791Z,98.90
2022-08-20T01:56:05.611Z,99.20
2022-08-20T01:56:15.078Z,99.50
2022-08-20T01:56:24.519Z,99.60
2022-08-20T01:56:33.922Z,99.70
2022-08-20T01:56:43.339Z,99.80
2022-08-20T01:56:52.750Z,99.90
2022-08-20T01:57:02.183Z,99.90
2022-08-20T01:57:11.573Z,99.90
2022-08-20T01:57:20.973Z,99.90
2022-08-20T01:57:30.406Z,99.90
2022-08-20T01:57:39.814Z,99.90
2022-08-20T01:57:49.291Z,99.90
2022-08-20T01:57:58.661Z,99.90
2022-08-20T01:58:08.080Z,99.90
2022-08-20T01:58:17.476Z,99.90
2022-08-20T01:58:26.891Z,99.90
2022-08-20T01:58:45.737Z,99.90
2022-08-20T01:58:56.039Z,99.90
2022-08-20T01:59:04.565Z,99.90
2022-08-20T01:59:13.988Z,99.90
2022-08-20T01:59:23.402Z,99.90
2022-08-20T01:59:32.827Z,99.90
2022-08-20T01:59:42.215Z,99.90
2022-08-20T01:59:51.613Z,99.90
2022-08-20T02:00:01.071Z,99.90
2022-08-20T02:00:11.023Z,99.90
2022-08-20T02:00:21.981Z,99.90
2022-08-20T02:00:29.292Z,99.90
2022-08-20T02:00:38.747Z,99.90
2022-08-20T02:00:48.294Z,99.90
2022-08-20T02:00:57.736Z,99.90
2022-08-20T02:01:07.192Z,99.90
2022-08-20T02:01:26.030Z,99.90
2022-08-20T02:01:45.924Z,99.90
2022-08-20T02:01:46.290Z,99.90
2022-08-20T02:01:54.280Z,99.90
2022-08-20T02:02:03.667Z,99.90
2022-08-20T02:02:13.070Z,99.90
2022-08-20T02:02:22.488Z,99.90
2022-08-20T02:02:31.903Z,99.90
2022-08-20T02:02:41.333Z,99.90
2022-08-20T02:02:50.754Z,99.90
2022-08-20T02:03:00.190Z,99.90
2022-08-20T02:03:09.736Z,99.90
2022-08-20T02:03:19.143Z,99.90
2022-08-20T02:03:28.563Z,99.90
2022-08-20T02:03:42.864Z,99.90
2022-08-20T02:03:47.407Z,99.90
2022-08-20T02:03:56.817Z,99.90
2022-08-20T02:04:15.695Z,99.90
2022-08-20T02:04:25.097Z,99.90
2022-08-20T02:04:34.511Z,99.90
2022-08-20T02:04:43.932Z,99.90
2022-08-20T02:04:53.331Z,99.90
2022-08-20T02:05:02.745Z,99.90
2022-08-20T02:05:12.164Z,99.90
2022-08-20T02:05:21.593Z,99.90
2022-08-20T02:05:31.074Z,99.90
2022-08-20T02:05:40.524Z,99.90
2022-08-20T02:05:49.949Z,99.90
2022-08-20T02:05:59.364Z,99.90
2022-08-20T02:06:08.794Z,99.90
2022-08-20T02:06:18.205Z,99.90
2022-08-20T02:06:27.632Z,99.90
2022-08-20T02:06:37.049Z,99.90
2022-08-20T02:06:57.505Z,99.90
2022-08-20T02:07:05.320Z,99.90
2022-08-20T02:07:14.737Z,99.90
2022-08-20T02:07:24.153Z,99.90
2022-08-20T02:07:33.564Z,99.90
2022-08-20T02:07:42.989Z,99.90
2022-08-20T02:07:52.450Z,99.90
2022-08-20T02:08:01.847Z,99.90
2022-08-20T02:08:11.268Z,99.90
2022-08-20T02:08:20.685Z,99.90
2022-08-20T02:08:30.131Z,99.90
2022-08-20T02:08:39.545Z,99.90
2022-08-20T02:08:48.987Z,99.90